Time;durP1;ratioP1;P1;durP2;ratioP2;P2;SDS_P1;SDS_P2;PMS_P1;PMS_P2;Temp;Humidity;BMP_temperature;BMP_pressure;BME280_temperature;BME280_humidity;BME280_pressure;Samples;Min_cycle;Max_cycle;Signal;HPM_P1;HPM_P2
2023/01/19 00:01:30;;;;;;;;;;;20.60;99.90;;;;;;5077615;28;19923;-66
2023/01/19 00:03:57;;;;;;;;;;;20.60;99.90;;;;;;5080461;28;19932;-65
2023/01/19 00:06:23;;;;;;;;;;;20.60;99.90;;;;;;5078675;28;19916;-68
2023/01/19 00:08:50;;;;;;;;;;;20.40;99.90;;;;;;5080626;28;19955;-65
2023/01/19 00:11:17;;;;;;;;;;;20.50;99.90;;;;;;5085217;28;19935;-68
2023/01/19 00:13:53;;;;;;;;;;;20.50;99.90;;;;;;5090208;28;19958;-68
2023/01/19 00:16:21;;;;;;;;;;;20.50;99.90;;;;;;5091751;28;20006;-69
2023/01/19 00:18:49;;;;;;;;;;;20.60;99.90;;;;;;5090212;28;19974;-68
2023/01/19 00:21:16;;;;;;;;;;;20.60;99.90;;;;;;5091020;28;19912;-68
2023/01/19 00:23:46;;;;;;;;;;;20.60;99.90;;;;;;5086314;28;21565;-61
2023/01/19 00:26:15;;;;;;;;;;;20.60;99.90;;;;;;5091066;28;19912;-65
2023/01/19 00:28:44;;;;;;;;;;;20.80;99.90;;;;;;5088909;28;19919;-66
2023/01/19 00:31:11;;;;;;;;;;;20.90;99.90;;;;;;5081190;28;19912;-65
2023/01/19 00:33:38;;;;;;;;;;;21.00;99.90;;;;;;5087261;28;19973;-63
2023/01/19 00:36:04;;;;;;;;;;;21.10;99.90;;;;;;5078171;28;19931;-65
2023/01/19 00:38:31;;;;;;;;;;;21.20;99.90;;;;;;5070709;28;19916;-66
2023/01/19 00:40:58;;;;;;;;;;;21.10;99.90;;;;;;5087876;28;19971;-66
2023/01/19 00:43:24;;;;;;;;;;;21.10;99.90;;;;;;5089052;28;19912;-66
2023/01/19 00:45:52;;;;;;;;;;;21.10;99.90;;;;;;5090834;28;19908;-67
2023/01/19 00:48:18;;;;;;;;;;;21.10;99.90;;;;;;5082311;28;19963;-65
2023/01/19 00:50:47;;;;;;;;;;;21.20;99.90;;;;;;5074738;28;20399;-65
2023/01/19 00:53:14;;;;;;;;;;;21.20;99.90;;;;;;5070486;28;19909;-67
2023/01/19 00:55:41;;;;;;;;;;;21.20;99.90;;;;;;5071266;28;19908;-66
2023/01/19 00:58:07;;;;;;;;;;;21.20;99.90;;;;;;5079151;28;19913;-63
2023/01/19 01:00:34;;;;;;;;;;;21.30;99.90;;;;;;5082313;28;19912;-67
2023/01/19 01:03:01;;;;;;;;;;;21.20;99.90;;;;;;5082992;28;19919;-66
2023/01/19 01:05:27;;;;;;;;;;;21.30;99.90;;;;;;5089126;28;20925;-65
2023/01/19 01:07:54;;;;;;;;;;;21.20;99.90;;;;;;5071350;28;19919;-66
2023/01/19 01:10:22;;;;;;;;;;;21.00;99.90;;;;;;5087539;28;19915;-65
2023/01/19 01:12:49;;;;;;;;;;;21.00;99.90;;;;;;5090596;28;20006;-68
2023/01/19 01:15:16;;;;;;;;;;;21.10;99.90;;;;;;5086854;28;20014;-65
2023/01/19 01:17:47;;;;;;;;;;;21.00;99.90;;;;;;5088633;28;19927;-65
2023/01/19 01:20:16;;;;;;;;;;;20.90;99.90;;;;;;5085181;28;19916;-65
2023/01/19 01:22:44;;;;;;;;;;;20.90;99.90;;;;;;5068959;28;19909;-66
2023/01/19 01:25:14;;;;;;;;;;;20.80;99.90;;;;;;5070619;28;19927;-64
2023/01/19 01:27:41;;;;;;;;;;;20.80;99.90;;;;;;5082716;28;19912;-67
2023/01/19 01:30:09;;;;;;;;;;;20.90;99.90;;;;;;5077399;28;19951;-67
2023/01/19 01:32:36;;;;;;;;;;;20.90;99.90;;;;;;5085673;28;20368;-64
2023/01/19 01:35:02;;;;;;;;;;;20.90;99.90;;;;;;5088518;28;19977;-65
2023/01/19 01:37:29;;;;;;;;;;;21.00;99.90;;;;;;5090691;28;19923;-67
2023/01/19 01:39:56;;;;;;;;;;;20.90;99.90;;;;;;5086714;28;19915;-67
2023/01/19 01:42:27;;;;;;;;;;;20.90;99.90;;;;;;5085479;28;19981;-67
2023/01/19 01:44:56;;;;;;;;;;;20.90;99.90;;;;;;5087395;28;19912;-65
2023/01/19 01:47:28;;;;;;;;;;;20.80;99.90;;;;;;5091246;28;19915;-67
2023/01/19 01:50:04;;;;;;;;;;;20.70;99.90;;;;;;5089266;28;19908;-66
2023/01/19 01:52:31;;;;;;;;;;;20.70;99.90;;;;;;5091438;28;19908;-62
2023/01/19 01:54:59;;;;;;;;;;;20.70;99.90;;;;;;5091834;28;19908;-67
2023/01/19 01:57:26;;;;;;;;;;;20.80;99.90;;;;;;5091770;28;20010;-67
2023/01/19 01:59:54;;;;;;;;;;;20.80;99.90;;;;;;5091699;28;19912;-64
2023/01/19 02:05:29;;;;;;;;;;;20.80;99.90;;;;;;5095329;28;19916;-68
2023/01/19 02:13:26;;;;;;;;;;;20.60;99.90;;;;;;5095538;28;19961;-62
2023/01/19 02:15:57;;;;;;;;;;;20.70;99.90;;;;;;5095142;28;19915;-63
2023/01/19 02:18:25;;;;;;;;;;;20.60;99.90;;;;;;5094985;28;19912;-64
2023/01/19 02:21:13;;;;;;;;;;;20.60;99.90;;;;;;5095329;28;19909;-63
2023/01/19 02:23:41;;;;;;;;;;;20.50;99.90;;;;;;5095105;28;19954;-65
2023/01/19 02:26:09;;;;;;;;;;;20.60;99.90;;;;;;5094888;28;19908;-68
2023/01/19 02:28:38;;;;;;;;;;;20.50;99.90;;;;;;5094814;28;19908;-67
2023/01/19 02:31:05;;;;;;;;;;;20.40;99.90;;;;;;5094786;28;19912;-67
2023/01/19 02:33:31;;;;;;;;;;;20.50;99.90;;;;;;5095201;28;19920;-64
2023/01/19 02:35:59;;;;;;;;;;;20.50;99.90;;;;;;5095263;28;19923;-64
2023/01/19 02:38:27;;;;;;;;;;;20.50;99.90;;;;;;5094992;28;20323;-67
2023/01/19 02:40:55;;;;;;;;;;;20.50;99.90;;;;;;5094795;28;19940;-64
2023/01/19 02:43:23;;;;;;;;;;;20.50;99.90;;;;;;5095152;28;19908;-63
2023/01/19 02:45:50;;;;;;;;;;;20.50;99.90;;;;;;5094610;28;20409;-69
2023/01/19 02:48:19;;;;;;;;;;;20.70;99.90;;;;;;5094243;28;19908;-66
2023/01/19 02:50:49;;;;;;;;;;;20.80;99.90;;;;;;5094572;28;19908;-67
2023/01/19 02:53:34;;;;;;;;;;;21.00;99.90;;;;;;5094433;28;19946;-66
2023/01/19 02:56:03;;;;;;;;;;;21.20;99.90;;;;;;5094546;28;19912;-65
2023/01/19 02:58:48;;;;;;;;;;;21.50;99.90;;;;;;5095076;28;20280;-67
2023/01/19 03:01:17;;;;;;;;;;;21.70;99.90;;;;;;5094780;28;19912;-66
2023/01/19 03:03:53;;;;;;;;;;;21.70;99.90;;;;;;5094635;28;19908;-68
2023/01/19 03:06:25;;;;;;;;;;;21.70;99.90;;;;;;5094660;28;19997;-64
2023/01/19 03:08:55;;;;;;;;;;;21.70;99.90;;;;;;5094288;28;19908;-65
2023/01/19 03:11:24;;;;;;;;;;;21.60;99.90;;;;;;5094295;28;19908;-66
2023/01/19 03:13:53;;;;;;;;;;;21.60;99.90;;;;;;5093482;28;19915;-65
2023/01/19 03:16:21;;;;;;;;;;;21.70;99.90;;;;;;5093975;28;19943;-63
2023/01/19 03:18:52;;;;;;;;;;;21.70;99.80;;;;;;5094049;28;19987;-63
2023/01/19 03:21:22;;;;;;;;;;;21.60;99.80;;;;;;5091373;28;19915;-66
2023/01/19 03:23:49;;;;;;;;;;;21.40;99.70;;;;;;5084395;28;19912;-68
2023/01/19 03:26:18;;;;;;;;;;;21.40;99.90;;;;;;5093852;28;20353;-66
2023/01/19 03:28:46;;;;;;;;;;;21.40;99.90;;;;;;5093726;28;19941;-67
2023/01/19 03:31:22;;;;;;;;;;;21.40;99.90;;;;;;5093874;28;19914;-68
2023/01/19 03:33:54;;;;;;;;;;;21.30;99.80;;;;;;5093708;28;19920;-64
2023/01/19 03:36:31;;;;;;;;;;;21.20;99.90;;;;;;5093720;28;19912;-66
2023/01/19 03:38:59;;;;;;;;;;;21.20;99.90;;;;;;5093522;28;19908;-65
2023/01/19 03:41:27;;;;;;;;;;;21.30;99.90;;;;;;5093494;28;19908;-64
2023/01/19 03:43:54;;;;;;;;;;;21.40;99.90;;;;;;5093670;28;19951;-63
2023/01/19 03:46:22;;;;;;;;;;;21.30;99.90;;;;;;5093488;28;19947;-65
2023/01/19 03:48:49;;;;;;;;;;;21.30;99.60;;;;;;5093784;28;19908;-65
2023/01/19 03:51:16;;;;;;;;;;;21.20;99.90;;;;;;5093781;28;19908;-67
2023/01/19 03:53:43;;;;;;;;;;;21.10;99.90;;;;;;5093686;28;19915;-65
2023/01/19 03:56:17;;;;;;;;;;;21.00;99.90;;;;;;5093081;28;19962;-67
2023/01/19 03:58:43;;;;;;;;;;;21.00;99.90;;;;;;5093304;28;19916;-68
2023/01/19 04:01:10;;;;;;;;;;;21.00;99.90;;;;;;5092953;28;19914;-66
2023/01/19 04:03:37;;;;;;;;;;;20.90;99.90;;;;;;5093205;28;19908;-63
2023/01/19 04:06:03;;;;;;;;;;;20.90;99.90;;;;;;5093724;28;19908;-65
2023/01/19 04:08:31;;;;;;;;;;;20.90;99.90;;;;;;5093761;28;19999;-68
2023/01/19 04:10:58;;;;;;;;;;;20.80;99.90;;;;;;5093377;28;20386;-67
2023/01/19 04:13:27;;;;;;;;;;;20.80;99.90;;;;;;5092409;28;19912;-68
2023/01/19 04:15:54;;;;;;;;;;;20.90;99.90;;;;;;5093034;28;19931;-70
2023/01/19 04:18:20;;;;;;;;;;;20.80;99.90;;;;;;5092931;28;19965;-66
2023/01/19 04:20:47;;;;;;;;;;;20.90;99.90;;;;;;5090261;28;19909;-62
2023/01/19 04:23:13;;;;;;;;;;;20.90;99.90;;;;;;5091688;28;19959;-65
2023/01/19 04:25:40;;;;;;;;;;;20.90;99.90;;;;;;5092893;28;19978;-67
2023/01/19 04:28:07;;;;;;;;;;;20.80;99.90;;;;;;5092889;28;20003;-68
2023/01/19 04:30:33;;;;;;;;;;;20.80;99.90;;;;;;5092339;28;20011;-67
2023/01/19 04:33:00;;;;;;;;;;;20.90;99.90;;;;;;5092183;28;20427;-64
2023/01/19 04:35:27;;;;;;;;;;;21.00;99.90;;;;;;5092944;28;19919;-69
2023/01/19 04:37:54;;;;;;;;;;;21.10;99.90;;;;;;5092602;28;19920;-68
2023/01/19 04:40:20;;;;;;;;;;;21.10;99.90;;;;;;5092454;28;19908;-68
2023/01/19 04:42:47;;;;;;;;;;;21.00;99.90;;;;;;5092471;28;20435;-65
2023/01/19 04:45:14;;;;;;;;;;;21.10;99.90;;;;;;5092494;28;19912;-66
2023/01/19 04:47:43;;;;;;;;;;;21.00;99.90;;;;;;5091185;28;19936;-67
2023/01/19 04:50:10;;;;;;;;;;;20.90;99.90;;;;;;5092545;28;19908;-66
2023/01/19 04:52:37;;;;;;;;;;;21.00;99.90;;;;;;5092782;28;20241;-68
2023/01/19 04:55:04;;;;;;;;;;;20.80;99.90;;;;;;5092316;28;19908;-66
2023/01/19 04:57:30;;;;;;;;;;;20.90;99.90;;;;;;5092070;28;19916;-68
2023/01/19 04:59:57;;;;;;;;;;;20.90;99.90;;;;;;5092133;28;19908;-66
2023/01/19 05:02:24;;;;;;;;;;;21.00;99.90;;;;;;5092272;28;19979;-64
2023/01/19 05:04:51;;;;;;;;;;;21.00;99.90;;;;;;5092216;28;19912;-66
2023/01/19 05:07:18;;;;;;;;;;;20.90;99.90;;;;;;5092030;28;19950;-64
2023/01/19 05:09:45;;;;;;;;;;;20.90;99.90;;;;;;5092030;28;19908;-65
2023/01/19 05:12:11;;;;;;;;;;;21.00;99.90;;;;;;5092379;28;19908;-69
2023/01/19 05:14:38;;;;;;;;;;;20.90;99.90;;;;;;5092217;28;19908;-69
2023/01/19 05:17:04;;;;;;;;;;;21.00;99.90;;;;;;5083590;28;19928;-66
2023/01/19 05:19:31;;;;;;;;;;;21.10;99.90;;;;;;5085321;28;20342;-64
2023/01/19 05:21:58;;;;;;;;;;;21.00;99.90;;;;;;5081818;28;19912;-66
2023/01/19 05:24:24;;;;;;;;;;;21.00;99.90;;;;;;5076776;28;19912;-67
2023/01/19 05:26:51;;;;;;;;;;;21.00;99.90;;;;;;5087301;28;19943;-68
2023/01/19 05:29:17;;;;;;;;;;;21.00;99.90;;;;;;5090725;28;20443;-66
2023/01/19 05:31:44;;;;;;;;;;;21.10;99.90;;;;;;5077773;28;19930;-66
2023/01/19 05:34:11;;;;;;;;;;;21.00;99.90;;;;;;5076588;28;20014;-67
2023/01/19 05:36:38;;;;;;;;;;;21.10;99.90;;;;;;5078784;28;20368;-69
2023/01/19 05:39:05;;;;;;;;;;;21.00;99.90;;;;;;5094929;28;19936;-64
2023/01/19 05:41:31;;;;;;;;;;;21.00;99.90;;;;;;5094707;28;19916;-66
2023/01/19 05:43:58;;;;;;;;;;;21.00;99.90;;;;;;5077655;28;20377;-68
2023/01/19 05:46:25;;;;;;;;;;;21.10;99.90;;;;;;5087933;28;19908;-67
2023/01/19 05:48:52;;;;;;;;;;;21.00;99.90;;;;;;5095585;28;20269;-68
2023/01/19 05:51:19;;;;;;;;;;;21.00;99.90;;;;;;5093411;28;19912;-64
2023/01/19 05:53:45;;;;;;;;;;;21.00;99.90;;;;;;5090823;28;19954;-69
2023/01/19 05:56:12;;;;;;;;;;;21.00;99.90;;;;;;5085859;28;20376;-69
2023/01/19 05:58:39;;;;;;;;;;;21.00;99.90;;;;;;5094204;28;20373;-68
2023/01/19 06:01:07;;;;;;;;;;;21.00;99.90;;;;;;5087999;28;19920;-68
2023/01/19 06:03:34;;;;;;;;;;;20.90;99.90;;;;;;5093866;28;19908;-67
2023/01/19 06:06:01;;;;;;;;;;;20.90;99.90;;;;;;5095074;28;19912;-64
2023/01/19 06:08:28;;;;;;;;;;;20.90;99.90;;;;;;5095537;28;19908;-68
2023/01/19 06:10:54;;;;;;;;;;;20.90;99.90;;;;;;5091914;28;19912;-67
2023/01/19 06:13:21;;;;;;;;;;;20.90;99.90;;;;;;5093088;28;19915;-69
2023/01/19 06:15:47;;;;;;;;;;;20.80;99.90;;;;;;5094107;28;19916;-68
2023/01/19 06:18:14;;;;;;;;;;;20.80;99.90;;;;;;5090267;28;20007;-65
2023/01/19 06:20:41;;;;;;;;;;;20.80;99.90;;;;;;5093818;28;19948;-68
2023/01/19 06:23:09;;;;;;;;;;;20.80;99.90;;;;;;5092649;28;19918;-68
2023/01/19 06:25:35;;;;;;;;;;;20.80;99.90;;;;;;5092925;28;19916;-65
2023/01/19 06:28:02;;;;;;;;;;;20.80;99.90;;;;;;5086834;28;19915;-69
2023/01/19 06:30:29;;;;;;;;;;;20.70;99.90;;;;;;5075524;28;19966;-65
2023/01/19 06:32:55;;;;;;;;;;;20.70;99.90;;;;;;5077364;28;19920;-67
2023/01/19 06:35:22;;;;;;;;;;;20.60;99.90;;;;;;5074965;28;19912;-66
2023/01/19 06:37:49;;;;;;;;;;;20.70;99.90;;;;;;5076374;28;19921;-64
2023/01/19 06:40:15;;;;;;;;;;;20.70;99.90;;;;;;5077025;28;19920;-64
2023/01/19 06:42:42;;;;;;;;;;;20.70;99.90;;;;;;5075920;28;20281;-67
2023/01/19 06:45:09;;;;;;;;;;;20.70;99.90;;;;;;5076400;28;19965;-68
2023/01/19 06:47:36;;;;;;;;;;;20.70;99.90;;;;;;5075190;28;19920;-67
2023/01/19 06:50:02;;;;;;;;;;;20.70;99.90;;;;;;5075314;28;19923;-65
2023/01/19 06:52:29;;;;;;;;;;;20.80;99.90;;;;;;5076839;28;19919;-64
2023/01/19 06:54:56;;;;;;;;;;;20.70;99.90;;;;;;5076104;28;19954;-66
2023/01/19 06:57:24;;;;;;;;;;;20.70;99.90;;;;;;5074844;28;19924;-68
2023/01/19 06:59:51;;;;;;;;;;;20.70;99.90;;;;;;5076724;28;19920;-67
2023/01/19 07:02:21;;;;;;;;;;;20.70;99.90;;;;;;5075939;28;19919;-65
2023/01/19 07:04:48;;;;;;;;;;;20.70;99.90;;;;;;5081657;28;20361;-67
2023/01/19 07:07:15;;;;;;;;;;;20.70;99.90;;;;;;5079596;28;19916;-66
2023/01/19 07:09:42;;;;;;;;;;;20.70;99.90;;;;;;5087355;28;19920;-66
2023/01/19 07:12:08;;;;;;;;;;;20.50;99.90;;;;;;5079617;28;19970;-67
2023/01/19 07:14:35;;;;;;;;;;;20.60;99.90;;;;;;5078869;28;19939;-67
2023/01/19 07:17:02;;;;;;;;;;;20.50;99.90;;;;;;5073757;28;20384;-65
2023/01/19 07:19:28;;;;;;;;;;;20.50;99.90;;;;;;5091726;28;19958;-64
2023/01/19 07:21:56;;;;;;;;;;;20.40;99.90;;;;;;5084326;28;20027;-69
2023/01/19 07:24:23;;;;;;;;;;;20.30;99.90;;;;;;5075412;28;20272;-66
2023/01/19 07:26:49;;;;;;;;;;;20.30;99.90;;;;;;5072384;28;19916;-66
2023/01/19 07:29:16;;;;;;;;;;;20.30;99.90;;;;;;5073053;28;19951;-67
2023/01/19 07:31:43;;;;;;;;;;;20.30;99.90;;;;;;5081999;28;19919;-68
2023/01/19 07:34:09;;;;;;;;;;;20.30;99.90;;;;;;5085432;28;19925;-66
2023/01/19 07:36:36;;;;;;;;;;;20.30;99.90;;;;;;5076563;28;20426;-68
2023/01/19 07:39:02;;;;;;;;;;;20.30;99.90;;;;;;5087932;28;19922;-65
2023/01/19 07:41:29;;;;;;;;;;;20.20;99.90;;;;;;5088945;28;19955;-68
2023/01/19 07:43:56;;;;;;;;;;;20.20;99.90;;;;;;5092771;28;19919;-69
2023/01/19 07:46:22;;;;;;;;;;;20.20;99.90;;;;;;5090311;28;19927;-66
2023/01/19 07:48:49;;;;;;;;;;;20.20;99.90;;;;;;5080176;28;19912;-68
2023/01/19 07:51:18;;;;;;;;;;;20.20;99.90;;;;;;5088928;28;19939;-66
2023/01/19 07:53:45;;;;;;;;;;;20.20;99.90;;;;;;5092846;28;20276;-67
2023/01/19 07:56:12;;;;;;;;;;;20.20;99.90;;;;;;5075033;28;20391;-68
2023/01/19 07:58:38;;;;;;;;;;;20.20;99.90;;;;;;5093218;28;19919;-67
2023/01/19 08:01:09;;;;;;;;;;;20.10;99.90;;;;;;5087834;28;19916;-69
2023/01/19 08:03:36;;;;;;;;;;;20.10;99.90;;;;;;5088657;28;19932;-67
2023/01/19 08:06:04;;;;;;;;;;;20.10;99.90;;;;;;5076454;28;19957;-65
2023/01/19 08:08:31;;;;;;;;;;;20.10;99.90;;;;;;5073129;28;19939;-65
2023/01/19 08:10:58;;;;;;;;;;;20.10;99.90;;;;;;5089192;28;20295;-67
2023/01/19 08:13:25;;;;;;;;;;;20.00;99.90;;;;;;5091457;28;19912;-66
2023/01/19 08:15:52;;;;;;;;;;;20.00;99.90;;;;;;5078472;28;19913;-67
2023/01/19 08:18:20;;;;;;;;;;;20.00;99.90;;;;;;5072763;28;19917;-66
2023/01/19 08:20:46;;;;;;;;;;;20.00;99.90;;;;;;5088469;28;20010;-67
2023/01/19 08:23:13;;;;;;;;;;;20.00;99.90;;;;;;5081659;28;19912;-66
2023/01/19 08:25:44;;;;;;;;;;;19.90;99.90;;;;;;5073439;28;19916;-66
2023/01/19 08:28:12;;;;;;;;;;;19.90;99.90;;;;;;5082017;28;19912;-66
2023/01/19 08:30:39;;;;;;;;;;;20.00;99.90;;;;;;5086162;28;19971;-67
2023/01/19 08:33:07;;;;;;;;;;;20.00;99.90;;;;;;5073650;28;19916;-67
2023/01/19 08:35:35;;;;;;;;;;;20.00;99.90;;;;;;5083322;28;21708;-67
2023/01/19 08:38:07;;;;;;;;;;;20.00;99.90;;;;;;5073320;28;20223;-69
2023/01/19 08:40:34;;;;;;;;;;;20.00;99.90;;;;;;5072606;28;19912;-66
2023/01/19 08:43:03;;;;;;;;;;;20.00;99.90;;;;;;5075732;28;19921;-67
2023/01/19 08:45:30;;;;;;;;;;;20.00;99.90;;;;;;5076737;28;20430;-68
2023/01/19 08:48:00;;;;;;;;;;;20.00;99.90;;;;;;5085490;28;19919;-66
2023/01/19 08:50:30;;;;;;;;;;;20.00;99.90;;;;;;5081809;28;20281;-68
2023/01/19 08:53:01;;;;;;;;;;;20.00;99.90;;;;;;5082755;28;19912;-68
2023/01/19 08:55:28;;;;;;;;;;;19.90;99.90;;;;;;5085440;28;19919;-68
2023/01/19 08:57:58;;;;;;;;;;;19.90;99.90;;;;;;5078263;28;19916;-67
2023/01/19 09:00:26;;;;;;;;;;;19.90;99.90;;;;;;5089137;28;19918;-68
2023/01/19 09:02:53;;;;;;;;;;;19.90;99.90;;;;;;5073947;28;19920;-67
2023/01/19 09:05:19;;;;;;;;;;;19.90;99.90;;;;;;5073641;28;20353;-67
2023/01/19 09:07:50;;;;;;;;;;;19.90;99.90;;;;;;5075543;28;19912;-67
2023/01/19 09:10:18;;;;;;;;;;;19.90;99.90;;;;;;5071099;28;19916;-68
2023/01/19 09:12:45;;;;;;;;;;;19.90;99.90;;;;;;5083792;28;19920;-67
2023/01/19 09:15:15;;;;;;;;;;;19.90;99.90;;;;;;5086599;28;19916;-71
2023/01/19 09:17:41;;;;;;;;;;;19.90;99.90;;;;;;5080067;28;20011;-69
2023/01/19 09:20:08;;;;;;;;;;;19.90;99.90;;;;;;5091295;28;20392;-66
2023/01/19 09:22:35;;;;;;;;;;;19.90;99.90;;;;;;5091647;28;19908;-67
2023/01/19 09:25:02;;;;;;;;;;;19.90;99.90;;;;;;5080663;28;19913;-68
2023/01/19 09:27:28;;;;;;;;;;;20.00;99.90;;;;;;5074938;28;19967;-69
2023/01/19 09:29:55;;;;;;;;;;;20.00;99.90;;;;;;5082235;28;19999;-69
2023/01/19 09:32:21;;;;;;;;;;;19.90;99.90;;;;;;5086928;28;19912;-69
2023/01/19 09:34:48;;;;;;;;;;;20.00;99.90;;;;;;5080883;28;19928;-67
2023/01/19 09:37:15;;;;;;;;;;;19.90;99.90;;;;;;5079779;28;19936;-68
2023/01/19 09:39:42;;;;;;;;;;;19.90;99.90;;;;;;5075799;28;20006;-68
2023/01/19 09:42:14;;;;;;;;;;;19.90;99.90;;;;;;5090016;28;20433;-66
2023/01/19 09:44:42;;;;;;;;;;;19.90;99.90;;;;;;5077242;28;20361;-68
2023/01/19 09:47:16;;;;;;;;;;;19.90;99.90;;;;;;5071800;28;19912;-69
2023/01/19 09:49:45;;;;;;;;;;;19.90;99.90;;;;;;5080990;28;19919;-67
2023/01/19 09:52:15;;;;;;;;;;;19.90;99.90;;;;;;5085625;28;19947;-69
2023/01/19 09:54:46;;;;;;;;;;;19.90;99.90;;;;;;5085227;28;19957;-68
2023/01/19 09:57:13;;;;;;;;;;;19.90;99.90;;;;;;5080737;28;19912;-68
2023/01/19 09:59:42;;;;;;;;;;;19.90;99.90;;;;;;5089948;28;19912;-69
2023/01/19 10:02:22;;;;;;;;;;;20.00;99.90;;;;;;5082995;28;20417;-67
2023/01/19 10:04:55;;;;;;;;;;;20.00;99.90;;;;;;5072909;28;19917;-68
2023/01/19 10:07:37;;;;;;;;;;;19.90;99.90;;;;;;5079651;28;20268;-68
2023/01/19 10:10:21;;;;;;;;;;;19.90;99.90;;;;;;5074696;28;19958;-69
2023/01/19 10:13:07;;;;;;;;;;;19.90;99.90;;;;;;5090174;28;19912;-68
2023/01/19 10:15:37;;;;;;;;;;;20.00;99.90;;;;;;5072458;28;19948;-69
2023/01/19 10:18:16;;;;;;;;;;;20.00;99.90;;;;;;5082466;28;20287;-67
2023/01/19 10:20:49;;;;;;;;;;;19.90;99.90;;;;;;5081238;28;19926;-69
2023/01/19 10:23:23;;;;;;;;;;;20.00;99.90;;;;;;5073687;28;19966;-69
2023/01/19 10:25:51;;;;;;;;;;;20.10;99.90;;;;;;5083287;28;19913;-68
2023/01/19 10:28:20;;;;;;;;;;;20.10;99.90;;;;;;5074874;28;20282;-68
2023/01/19 10:30:47;;;;;;;;;;;20.20;99.90;;;;;;5076240;28;20410;-66
2023/01/19 10:33:14;;;;;;;;;;;20.30;99.90;;;;;;5076920;28;20388;-69
2023/01/19 10:35:41;;;;;;;;;;;20.30;99.90;;;;;;5083970;28;19943;-67
2023/01/19 10:38:11;;;;;;;;;;;20.40;99.90;;;;;;5092784;28;20406;-68
2023/01/19 10:40:48;;;;;;;;;;;20.50;99.90;;;;;;5074678;28;19969;-68
2023/01/19 10:43:50;;;;;;;;;;;20.50;99.90;;;;;;5074921;28;19951;-68
2023/01/19 10:46:19;;;;;;;;;;;20.50;99.90;;;;;;5032526;28;19909;-67
2023/01/19 10:48:48;;;;;;;;;;;20.50;99.90;;;;;;5074181;28;19916;-67
2023/01/19 10:51:15;;;;;;;;;;;20.50;99.90;;;;;;5093980;28;19912;-68
2023/01/19 10:54:01;;;;;;;;;;;20.50;99.90;;;;;;5094586;28;20292;-67
2023/01/19 10:56:32;;;;;;;;;;;20.50;99.90;;;;;;5094818;28;19999;-67
2023/01/19 10:58:59;;;;;;;;;;;20.60;99.90;;;;;;5083916;28;19966;-67
2023/01/19 11:01:27;;;;;;;;;;;20.50;99.90;;;;;;5074164;28;19908;-67
2023/01/19 11:03:55;;;;;;;;;;;20.60;99.90;;;;;;5074135;28;19914;-67
2023/01/19 11:06:27;;;;;;;;;;;20.60;99.90;;;;;;5079370;28;20277;-67
2023/01/19 11:09:08;;;;;;;;;;;20.60;99.90;;;;;;5086803;28;19912;-68
2023/01/19 11:11:41;;;;;;;;;;;20.60;99.90;;;;;;5074274;28;19912;-67
2023/01/19 11:14:12;;;;;;;;;;;20.60;99.90;;;;;;5074310;28;19962;-67
2023/01/19 11:16:40;;;;;;;;;;;20.60;99.90;;;;;;5074091;28;19919;-66
2023/01/19 11:19:16;;;;;;;;;;;20.60;99.90;;;;;;5085796;28;20410;-67
2023/01/19 11:21:43;;;;;;;;;;;20.70;99.90;;;;;;5094457;28;20010;-67
2023/01/19 11:24:13;;;;;;;;;;;20.60;99.90;;;;;;5094378;28;19908;-68
2023/01/19 11:26:48;;;;;;;;;;;20.70;99.90;;;;;;5093845;28;20382;-68
2023/01/19 11:29:17;;;;;;;;;;;20.70;99.90;;;;;;5081622;28;19913;-68
2023/01/19 11:31:44;;;;;;;;;;;20.70;99.90;;;;;;5074011;28;19913;-69
2023/01/19 11:34:26;;;;;;;;;;;20.70;99.90;;;;;;5073823;28;20003;-69
2023/01/19 11:37:00;;;;;;;;;;;20.70;99.90;;;;;;5073497;28;19913;-68
2023/01/19 11:39:31;;;;;;;;;;;20.70;99.90;;;;;;5089841;28;19916;-67
2023/01/19 11:41:59;;;;;;;;;;;20.70;99.90;;;;;;5093964;28;20003;-68
2023/01/19 11:44:29;;;;;;;;;;;20.60;99.90;;;;;;5093915;28;19912;-67
2023/01/19 11:46:57;;;;;;;;;;;20.70;99.90;;;;;;5094289;28;19908;-68
2023/01/19 11:49:40;;;;;;;;;;;20.70;99.90;;;;;;5077972;28;20383;-67
2023/01/19 11:52:24;;;;;;;;;;;20.70;99.90;;;;;;5074005;28;19909;-66
2023/01/19 11:55:05;;;;;;;;;;;20.70;99.90;;;;;;5073528;28;19908;-67
2023/01/19 11:57:31;;;;;;;;;;;20.80;99.90;;;;;;5073477;28;19916;-65
2023/01/19 12:00:02;;;;;;;;;;;20.70;99.90;;;;;;5093246;28;20276;-67
2023/01/19 12:02:35;;;;;;;;;;;20.70;99.90;;;;;;5084821;28;20322;-66
2023/01/19 12:05:05;;;;;;;;;;;20.70;99.90;;;;;;5073470;28;19966;-67
2023/01/19 12:07:34;;;;;;;;;;;20.70;99.90;;;;;;5073571;28;20425;-67
2023/01/19 12:10:23;;;;;;;;;;;20.70;99.90;;;;;;5093569;28;19916;-67
2023/01/19 12:12:50;;;;;;;;;;;20.70;99.90;;;;;;5088106;28;19995;-67
2023/01/19 12:15:21;;;;;;;;;;;20.70;99.90;;;;;;5093496;28;19996;-67
2023/01/19 12:17:49;;;;;;;;;;;20.60;99.90;;;;;;5090223;28;20391;-67
2023/01/19 12:20:27;;;;;;;;;;;20.70;99.90;;;;;;5073006;28;19919;-67
2023/01/19 12:23:09;;;;;;;;;;;20.70;99.90;;;;;;5072880;28;19915;-67
2023/01/19 12:25:50;;;;;;;;;;;20.70;99.90;;;;;;5072981;28;19931;-68
2023/01/19 12:28:17;;;;;;;;;;;20.70;99.90;;;;;;5078061;28;19912;-68
2023/01/19 12:30:44;;;;;;;;;;;20.70;99.90;;;;;;5093174;28;19933;-67
2023/01/19 12:33:27;;;;;;;;;;;20.70;99.90;;;;;;5093089;28;19920;-68
2023/01/19 12:35:57;;;;;;;;;;;20.70;99.90;;;;;;5093167;28;19943;-66
2023/01/19 12:38:24;;;;;;;;;;;20.70;99.90;;;;;;5086367;28;19931;-67
2023/01/19 12:41:05;;;;;;;;;;;20.70;99.90;;;;;;5072534;28;20284;-68
2023/01/19 12:43:31;;;;;;;;;;;20.70;99.90;;;;;;5072795;28;19931;-67
2023/01/19 12:45:58;;;;;;;;;;;20.80;99.90;;;;;;5072570;28;19908;-67
2023/01/19 12:48:25;;;;;;;;;;;20.70;99.90;;;;;;5077250;28;19912;-68
2023/01/19 12:50:52;;;;;;;;;;;20.70;99.90;;;;;;5092673;28;20365;-67
2023/01/19 12:53:20;;;;;;;;;;;20.70;99.90;;;;;;5092737;28;20436;-66
2023/01/19 12:55:57;;;;;;;;;;;20.80;99.90;;;;;;5090086;28;19920;-68
2023/01/19 12:58:24;;;;;;;;;;;20.80;99.90;;;;;;5073417;28;19927;-68
2023/01/19 13:01:10;;;;;;;;;;;20.80;99.90;;;;;;5072382;28;19915;-65
2023/01/19 13:03:57;;;;;;;;;;;20.80;99.90;;;;;;5072808;28;19919;-66
2023/01/19 13:06:42;;;;;;;;;;;20.80;99.90;;;;;;5072769;28;19975;-67
2023/01/19 13:09:28;;;;;;;;;;;20.60;99.90;;;;;;5085400;28;19912;-67
2023/01/19 13:12:18;;;;;;;;;;;20.60;99.90;;;;;;5092394;28;20396;-68
2023/01/19 13:14:45;;;;;;;;;;;20.50;99.90;;;;;;5092823;28;19912;-67
2023/01/19 13:17:15;;;;;;;;;;;20.50;99.90;;;;;;5092811;28;19912;-67
2023/01/19 13:19:43;;;;;;;;;;;20.50;99.90;;;;;;5074451;28;19912;-68
2023/01/19 13:22:39;;;;;;;;;;;20.50;99.90;;;;;;5071181;28;19908;-67
2023/01/19 13:25:08;;;;;;;;;;;20.40;99.90;;;;;;5035240;28;19917;-67
2023/01/19 13:27:34;;;;;;;;;;;20.30;99.90;;;;;;5072278;28;19923;-68
2023/01/19 13:30:01;;;;;;;;;;;20.30;99.90;;;;;;5072412;28;19908;-67
2023/01/19 13:32:28;;;;;;;;;;;20.30;99.90;;;;;;5072192;28;19908;-67
2023/01/19 13:34:57;;;;;;;;;;;20.30;99.90;;;;;;5072476;28;19943;-68
2023/01/19 13:37:26;;;;;;;;;;;20.30;99.90;;;;;;5075983;28;19932;-68
2023/01/19 13:39:54;;;;;;;;;;;20.30;99.90;;;;;;5092517;28;19908;-67
2023/01/19 13:42:34;;;;;;;;;;;20.30;99.90;;;;;;5092285;28;19908;-68
2023/01/19 13:45:21;;;;;;;;;;;20.30;99.90;;;;;;5092435;28;19908;-66
2023/01/19 13:47:48;;;;;;;;;;;20.30;99.90;;;;;;5078632;28;19919;-67
2023/01/19 13:50:18;;;;;;;;;;;20.20;99.90;;;;;;5072375;28;19908;-67
2023/01/19 13:52:45;;;;;;;;;;;20.20;99.90;;;;;;5085458;28;20449;-67
2023/01/19 13:55:13;;;;;;;;;;;20.10;99.90;;;;;;5092223;28;20353;-66
2023/01/19 13:57:41;;;;;;;;;;;20.20;99.90;;;;;;5088442;28;20398;-67
2023/01/19 14:00:13;;;;;;;;;;;20.10;99.90;;;;;;5075967;28;20280;-67
2023/01/19 14:02:53;;;;;;;;;;;20.10;99.90;;;;;;5076010;28;19908;-67
2023/01/19 14:05:25;;;;;;;;;;;20.10;99.90;;;;;;5076056;28;19991;-66
2023/01/19 14:08:12;;;;;;;;;;;20.00;99.90;;;;;;5080970;28;19912;-67
2023/01/19 14:10:55;;;;;;;;;;;19.90;99.90;;;;;;5095761;28;19908;-68
2023/01/19 14:13:29;;;;;;;;;;;19.90;99.90;;;;;;5095818;28;19915;-68
2023/01/19 14:16:03;;;;;;;;;;;19.80;99.90;;;;;;5095829;28;19911;-68
2023/01/19 14:18:33;;;;;;;;;;;19.80;99.90;;;;;;5084900;28;19925;-67
2023/01/19 14:21:01;;;;;;;;;;;19.80;99.90;;;;;;5074951;28;19909;-68
2023/01/19 14:23:37;;;;;;;;;;;19.80;99.90;;;;;;5075066;28;19970;-68
2023/01/19 14:26:04;;;;;;;;;;;19.80;99.90;;;;;;5075480;28;20003;-68
2023/01/19 14:28:42;;;;;;;;;;;19.80;99.90;;;;;;5085677;28;19935;-67
2023/01/19 14:31:22;;;;;;;;;;;19.70;99.90;;;;;;5095696;28;19916;-67
2023/01/19 14:33:51;;;;;;;;;;;19.60;99.90;;;;;;5095551;28;19919;-67
2023/01/19 14:36:25;;;;;;;;;;;19.60;99.90;;;;;;5095676;28;19908;-67
2023/01/19 14:38:52;;;;;;;;;;;19.60;99.90;;;;;;5092844;28;20475;-66